Terminal Aerodrome Forecast
Issued by NWS Grand Junction, CO

Home | Current Version | Previous Version | Text Only | Print | Product List | Glossary On
Versions: 1 2 3 4 5 6 7 8 9 10 11 12 13 14 15 16 17 18 19 20 21 22 23 24 25 26 27 28 29 30 31 32 33 34 35 36 37 38 39
000
FTUS45 KGJT 050528
TAFGJT
TAF
KGJT 050528Z 0506/0606 08013KT P6SM VCTS SCT100CB
      TEMPO 0506/0508 -TSRA
     FM050900 12010KT P6SM SCT070 BKN090
     FM051500 14008KT P6SM SCT040 OVC070
     FM051900 23010KT P6SM OVC100
     FM060000 22012KT P6SM BKN100=

USA.gov is the U.S. government's official web portal to all federal, state and local government web resources and services.